Time;durP1;ratioP1;P1;durP2;ratioP2;P2;SDS_P1;SDS_P2;PMS_P1;PMS_P2;Temp;Humidity;BMP_temperature;BMP_pressure;BME280_temperature;BME280_humidity;BME280_pressure;Samples;Min_cycle;Max_cycle;Signal;HPM_P1;HPM_P2
2023/10/20 00:02:04;;;;;;;41.28;30.90;;;14.30;99.90;;;;;;5000611;28;20033;-85
2023/10/20 00:04:30;;;;;;;41.42;32.75;;;14.30;99.90;;;;;;4999441;28;20052;-87
2023/10/20 00:06:58;;;;;;;40.38;32.63;;;14.30;99.90;;;;;;5004692;28;20041;-88
2023/10/20 00:09:24;;;;;;;43.92;33.15;;;14.30;99.90;;;;;;5002562;28;20037;-88
2023/10/20 00:11:52;;;;;;;41.40;32.72;;;14.30;99.90;;;;;;5003685;28;20041;-86
2023/10/20 00:14:19;;;;;;;43.28;33.45;;;14.30;99.90;;;;;;5019348;28;20021;-87
2023/10/20 00:16:45;;;;;;;43.70;36.05;;;14.30;99.90;;;;;;5004714;28;20407;-87
2023/10/20 00:19:12;;;;;;;38.65;30.80;;;14.30;99.90;;;;;;4989399;28;20044;-87
2023/10/20 00:21:39;;;;;;;53.83;39.25;;;14.30;99.90;;;;;;4989079;28;20037;-81
2023/10/20 00:24:06;;;;;;;45.28;36.33;;;14.30;99.90;;;;;;5017649;28;20029;-80
2023/10/20 00:26:34;;;;;;;54.67;38.97;;;14.30;99.90;;;;;;4982358;28;20675;-79
2023/10/20 00:29:00;;;;;;;60.58;45.08;;;14.20;99.90;;;;;;5000279;28;20042;-79
2023/10/20 00:31:29;;;;;;;45.17;34.50;;;14.20;99.90;;;;;;5002320;28;20041;-79
2023/10/20 00:33:55;;;;;;;53.90;38.63;;;14.20;99.90;;;;;;5000324;28;20089;-80
2023/10/20 00:36:22;;;;;;;54.53;38.88;;;14.20;99.90;;;;;;4984973;28;20037;-80
2023/10/20 00:38:48;;;;;;;52.67;38.95;;;14.20;99.90;;;;;;4997537;28;20045;-79
2023/10/20 00:41:16;;;;;;;58.00;40.20;;;14.10;99.90;;;;;;5033128;28;20030;-79
2023/10/20 00:44:00;;;;;;;49.08;36.63;;;14.10;99.90;;;;;;5020286;28;20045;-80
2023/10/20 00:46:27;;;;;;;57.58;42.45;;;14.10;99.90;;;;;;5005180;28;20046;-80
2023/10/20 00:48:53;;;;;;;53.60;37.17;;;14.10;99.90;;;;;;5017324;28;20045;-79
2023/10/20 00:51:20;;;;;;;44.85;34.00;;;14.10;99.90;;;;;;4985372;28;20038;-79
2023/10/20 00:53:47;;;;;;;58.45;41.05;;;14.10;99.90;;;;;;5029423;28;20069;-81
2023/10/20 00:56:15;;;;;;;64.22;46.33;;;14.00;99.90;;;;;;5003530;28;20404;-80
2023/10/20 00:58:41;;;;;;;57.33;41.17;;;14.00;99.90;;;;;;4985507;28;20408;-79
2023/10/20 01:01:08;;;;;;;60.75;44.30;;;14.00;99.90;;;;;;5020740;28;20033;-80
2023/10/20 01:03:35;;;;;;;55.13;40.42;;;14.00;99.90;;;;;;5018220;28;20944;-81
2023/10/20 01:06:04;;;;;;;54.17;40.25;;;13.90;99.90;;;;;;5000308;28;20153;-80
2023/10/20 01:08:30;;;;;;;58.97;41.70;;;13.90;99.90;;;;;;5016226;28;20036;-80
2023/10/20 01:10:58;;;;;;;59.72;39.33;;;13.90;99.90;;;;;;5000801;28;20727;-80
2023/10/20 01:13:25;;;;;;;45.88;34.17;;;13.90;99.90;;;;;;4985243;28;20037;-80
2023/10/20 01:15:51;;;;;;;54.28;38.80;;;13.90;99.90;;;;;;4999355;28;20041;-81
2023/10/20 01:18:18;;;;;;;46.40;34.50;;;13.90;99.90;;;;;;5001876;28;20037;-81
2023/10/20 01:20:44;;;;;;;59.95;40.92;;;13.90;99.90;;;;;;4993258;28;20044;-80
2023/10/20 01:23:11;;;;;;;55.05;38.75;;;13.80;99.90;;;;;;5014642;28;20040;-79
2023/10/20 01:25:37;;;;;;;43.20;31.75;;;13.80;99.90;;;;;;5000485;28;20041;-80
2023/10/20 01:28:04;;;;;;;47.90;34.22;;;13.80;99.90;;;;;;5017611;28;20401;-81
2023/10/20 01:30:30;;;;;;;51.25;37.03;;;13.80;99.90;;;;;;5017922;28;20037;-80
2023/10/20 01:32:56;;;;;;;51.42;37.88;;;13.80;99.90;;;;;;4984364;28;20040;-80
2023/10/20 01:35:23;;;;;;;52.20;39.65;;;13.80;99.90;;;;;;5014982;28;20628;-80
2023/10/20 01:37:49;;;;;;;48.08;35.28;;;13.70;99.90;;;;;;5013401;28;20033;-81
2023/10/20 01:40:17;;;;;;;64.57;42.60;;;13.70;99.90;;;;;;4992142;28;20511;-80
2023/10/20 01:42:43;;;;;;;64.18;44.00;;;13.70;99.90;;;;;;4995037;28;20033;-79
2023/10/20 01:45:10;;;;;;;57.03;41.05;;;13.70;99.90;;;;;;5014093;28;22526;-81
2023/10/20 01:47:37;;;;;;;61.47;43.38;;;13.70;99.90;;;;;;5013771;28;20041;-81
2023/10/20 01:50:04;;;;;;;70.25;45.58;;;13.70;99.90;;;;;;5015745;28;20034;-80
2023/10/20 01:52:30;;;;;;;76.82;47.00;;;13.60;99.90;;;;;;5014761;28;20032;-79
2023/10/20 01:54:58;;;;;;;60.13;43.85;;;13.60;99.90;;;;;;4997289;28;20128;-81
2023/10/20 01:57:24;;;;;;;55.78;40.33;;;13.60;99.90;;;;;;4999143;28;20412;-80
2023/10/20 01:59:51;;;;;;;54.63;39.28;;;13.60;99.90;;;;;;4997670;28;20112;-80
2023/10/20 02:02:18;;;;;;;69.30;45.53;;;13.60;99.90;;;;;;5014565;28;20709;-79
2023/10/20 02:04:44;;;;;;;49.88;35.03;;;13.50;99.90;;;;;;4996449;28;20766;-79
2023/10/20 02:07:12;;;;;;;66.32;43.28;;;13.50;99.90;;;;;;5012187;28;20045;-80
2023/10/20 02:09:39;;;;;;;70.90;43.97;;;13.50;99.90;;;;;;5013999;28;20030;-81
2023/10/20 02:12:05;;;;;;;61.83;42.40;;;13.50;99.90;;;;;;4982074;28;20408;-83
2023/10/20 02:14:33;;;;;;;55.67;37.22;;;13.50;99.90;;;;;;5015810;28;20025;-81
2023/10/20 02:16:59;;;;;;;66.25;44.30;;;13.50;99.90;;;;;;5016208;28;20036;-81
2023/10/20 02:19:30;;;;;;;62.00;42.72;;;13.50;99.90;;;;;;5000253;28;20053;-80
2023/10/20 02:21:59;;;;;;;62.33;40.08;;;13.50;99.90;;;;;;5000465;28;20045;-80
2023/10/20 02:24:26;;;;;;;65.70;44.55;;;13.50;99.90;;;;;;5016074;28;20028;-80
2023/10/20 02:26:52;;;;;;;67.05;43.15;;;13.40;99.90;;;;;;5019537;28;20040;-80
2023/10/20 02:29:19;;;;;;;77.38;48.83;;;13.40;99.90;;;;;;5016644;28;20489;-81
2023/10/20 02:31:45;;;;;;;58.65;39.10;;;13.40;99.90;;;;;;5000727;28;20033;-82
2023/10/20 02:34:11;;;;;;;65.00;40.70;;;13.40;99.90;;;;;;5015901;28;20025;-81
2023/10/20 02:36:58;;;;;;;67.38;42.78;;;13.40;99.90;;;;;;4988944;28;20045;-82
2023/10/20 02:39:24;;;;;;;88.45;51.30;;;13.40;99.90;;;;;;4998535;28;20048;-81
2023/10/20 02:41:51;;;;;;;73.07;45.75;;;13.30;99.90;;;;;;4983482;28;20040;-81
2023/10/20 02:44:17;;;;;;;83.78;47.00;;;13.30;99.90;;;;;;5001203;28;20041;-81
2023/10/20 02:46:44;;;;;;;77.68;45.60;;;13.20;99.90;;;;;;5000711;28;20045;-79
2023/10/20 02:49:10;;;;;;;60.03;37.28;;;13.10;99.90;;;;;;4998579;28;20377;-80
2023/10/20 02:51:36;;;;;;;61.20;38.67;;;13.10;99.90;;;;;;5001768;28;20368;-81
2023/10/20 02:54:03;;;;;;;58.55;37.53;;;13.00;99.90;;;;;;4999527;28;20052;-81
2023/10/20 02:56:30;;;;;;;79.05;43.17;;;13.10;99.90;;;;;;5015471;28;20040;-82
2023/10/20 02:58:56;;;;;;;72.75;41.97;;;13.00;99.90;;;;;;5016426;28;20033;-82
2023/10/20 03:01:23;;;;;;;87.82;48.00;;;13.00;99.90;;;;;;5016570;28;20041;-80
2023/10/20 03:03:49;;;;;;;74.95;46.13;;;13.00;99.90;;;;;;4999401;28;20045;-80
2023/10/20 03:06:16;;;;;;;67.97;38.83;;;12.90;99.90;;;;;;4984245;28;20042;-80
2023/10/20 03:08:43;;;;;;;73.50;41.47;;;12.90;99.90;;;;;;4995195;28;20769;-81
2023/10/20 03:11:10;;;;;;;68.80;39.75;;;12.80;99.90;;;;;;5016496;28;20048;-82
2023/10/20 03:13:37;;;;;;;73.38;41.85;;;12.90;99.90;;;;;;5001782;28;20037;-80
2023/10/20 03:16:05;;;;;;;82.55;44.85;;;12.80;99.90;;;;;;5017271;28;20038;-79
2023/10/20 03:18:32;;;;;;;100.32;49.55;;;12.80;99.90;;;;;;5017063;28;20528;-78
2023/10/20 03:21:02;;;;;;;70.57;40.97;;;12.80;99.90;;;;;;5002652;28;20037;-79
2023/10/20 03:23:30;;;;;;;77.03;43.35;;;12.70;99.90;;;;;;4982974;28;20033;-79
2023/10/20 03:25:56;;;;;;;101.22;51.13;;;12.70;99.90;;;;;;4998268;28;20495;-79
2023/10/20 03:28:23;;;;;;;81.90;46.28;;;12.60;99.90;;;;;;5016241;28;20041;-78
2023/10/20 03:30:50;;;;;;;79.45;42.80;;;12.60;99.90;;;;;;4999764;28;20065;-78
2023/10/20 03:33:17;;;;;;;71.47;39.90;;;12.60;99.90;;;;;;4999268;28;20030;-77
2023/10/20 03:35:43;;;;;;;85.53;45.53;;;12.60;99.90;;;;;;5016839;28;20044;-79
2023/10/20 03:38:10;;;;;;;72.13;40.13;;;12.50;99.90;;;;;;5016190;28;20044;-80
2023/10/20 03:40:37;;;;;;;86.28;46.33;;;12.50;99.90;;;;;;4995660;28;20037;-79
2023/10/20 03:43:05;;;;;;;78.05;42.80;;;12.40;99.90;;;;;;4997743;28;20049;-79
2023/10/20 03:45:40;;;;;;;85.20;44.75;;;12.40;99.90;;;;;;5000437;28;20033;-78
2023/10/20 03:48:10;;;;;;;83.45;45.13;;;12.40;99.90;;;;;;5020910;28;20045;-78
2023/10/20 03:50:42;;;;;;;74.18;42.25;;;12.40;99.90;;;;;;5005168;28;20048;-80
2023/10/20 03:53:11;;;;;;;80.22;43.78;;;12.30;99.90;;;;;;5023314;28;20365;-78
2023/10/20 03:55:37;;;;;;;76.10;43.75;;;12.30;99.90;;;;;;5003343;28;20041;-79
2023/10/20 03:58:04;;;;;;;97.63;49.97;;;12.30;99.90;;;;;;5019777;28;20396;-79
2023/10/20 04:00:31;;;;;;;93.85;46.53;;;12.20;99.90;;;;;;5003033;28;20396;-78
2023/10/20 04:02:58;;;;;;;81.20;43.92;;;12.20;99.90;;;;;;5002183;28;20052;-79
2023/10/20 04:05:25;;;;;;;87.20;46.67;;;12.20;99.90;;;;;;5000882;28;20041;-79
2023/10/20 04:07:52;;;;;;;90.90;48.25;;;12.20;99.90;;;;;;5018017;28;20800;-79
2023/10/20 04:10:19;;;;;;;83.03;45.38;;;12.10;99.90;;;;;;5019645;28;20029;-83
2023/10/20 04:12:47;;;;;;;90.72;47.00;;;12.10;99.90;;;;;;5019086;28;20044;-79
2023/10/20 04:15:14;;;;;;;92.25;47.58;;;12.10;99.90;;;;;;5015283;28;20582;-78
2023/10/20 04:17:46;;;;;;;70.70;39.28;;;12.10;99.90;;;;;;5018212;28;20472;-80
2023/10/20 04:20:18;;;;;;;94.82;45.55;;;12.00;99.90;;;;;;5002530;28;20676;-81
2023/10/20 04:22:49;;;;;;;78.93;44.30;;;12.10;99.90;;;;;;5034956;28;20401;-83
2023/10/20 04:25:22;;;;;;;86.28;45.40;;;12.00;99.90;;;;;;5000480;28;20496;-86
2023/10/20 04:28:01;;;;;;;105.38;56.03;;;12.00;99.90;;;;;;4998214;28;20369;-82
2023/10/20 04:54:57;;;;;;;98.38;49.35;;;11.80;99.90;;;;;;5025632;28;20036;-79
2023/10/20 05:02:43;;;;;;;72.18;41.53;;;11.80;99.90;;;;;;5016933;28;20060;-80
2023/10/20 05:07:52;;;;;;;63.22;34.80;;;11.70;99.90;;;;;;5018700;28;20041;-81
2023/10/20 05:10:20;;;;;;;54.20;31.48;;;11.70;99.90;;;;;;5001215;28;20734;-82
2023/10/20 05:12:49;;;;;;;52.30;29.02;;;11.70;99.90;;;;;;4983419;28;20044;-81
2023/10/20 05:15:16;;;;;;;55.88;32.30;;;11.70;99.90;;;;;;5017994;28;20037;-81
2023/10/20 05:17:43;;;;;;;52.80;30.60;;;11.80;99.90;;;;;;5016328;28;20044;-80
2023/10/20 05:20:12;;;;;;;62.75;34.85;;;11.80;99.90;;;;;;5019305;28;20060;-81
2023/10/20 05:22:40;;;;;;;57.00;30.65;;;11.70;99.90;;;;;;5017572;28;20465;-80
2023/10/20 05:25:08;;;;;;;53.13;30.17;;;11.70;99.90;;;;;;5001371;28;20033;-82
2023/10/20 05:27:34;;;;;;;51.28;30.30;;;11.70;99.90;;;;;;5015425;28;20041;-80
2023/10/20 05:30:03;;;;;;;51.35;30.23;;;11.70;99.90;;;;;;5000521;28;20044;-82
2023/10/20 05:32:31;;;;;;;44.65;27.77;;;11.70;99.90;;;;;;5000668;28;20060;-80
2023/10/20 05:34:59;;;;;;;50.80;29.73;;;11.70;99.90;;;;;;5016965;28;20045;-81
2023/10/20 05:37:25;;;;;;;45.65;27.05;;;11.70;99.90;;;;;;5000096;28;20061;-79
2023/10/20 05:39:53;;;;;;;50.80;29.70;;;11.60;99.90;;;;;;5000469;28;20416;-81
2023/10/20 05:42:19;;;;;;;39.13;24.67;;;11.60;99.90;;;;;;5012658;28;20041;-80
2023/10/20 05:47:32;;;;;;;44.20;26.38;;;11.60;99.90;;;;;;5032216;28;20038;-80
2023/10/20 05:50:00;;;;;;;40.45;25.10;;;11.60;99.90;;;;;;5018354;28;20163;-80
2023/10/20 05:52:27;;;;;;;35.42;21.25;;;11.60;99.90;;;;;;4998901;28;20085;-81
2023/10/20 05:54:55;;;;;;;30.85;19.58;;;11.50;99.90;;;;;;5017190;28;20032;-81
2023/10/20 05:57:22;;;;;;;32.33;19.98;;;11.50;99.90;;;;;;5016708;28;20030;-81
2023/10/20 05:59:50;;;;;;;28.88;19.15;;;11.50;99.90;;;;;;5017309;28;20045;-82
2023/10/20 06:02:16;;;;;;;32.95;21.73;;;11.50;99.90;;;;;;5016961;28;20032;-81
2023/10/20 06:04:43;;;;;;;38.65;22.88;;;11.50;99.90;;;;;;5003034;28;20679;-80
2023/10/20 06:07:09;;;;;;;33.95;22.20;;;11.50;99.90;;;;;;5001276;28;20396;-82
2023/10/20 06:09:35;;;;;;;40.50;23.95;;;11.40;99.90;;;;;;4999254;28;20038;-82
2023/10/20 06:12:03;;;;;;;36.17;22.33;;;11.40;99.90;;;;;;4996977;28;20389;-81
2023/10/20 06:14:30;;;;;;;34.42;20.80;;;11.40;99.90;;;;;;5002746;28;20044;-83
2023/10/20 06:17:26;;;;;;;39.88;23.45;;;11.40;99.90;;;;;;4942854;28;20046;-82
2023/10/20 06:19:53;;;;;;;45.70;27.38;;;11.40;99.90;;;;;;4954698;28;20043;-82
2023/10/20 06:22:19;;;;;;;37.72;22.40;;;11.30;99.90;;;;;;4954666;28;20046;-80
2023/10/20 06:24:47;;;;;;;46.58;27.17;;;11.40;99.90;;;;;;4938792;28;20486;-82
2023/10/20 06:27:13;;;;;;;55.80;28.95;;;11.30;99.90;;;;;;4939149;28;20062;-80
2023/10/20 06:33:12;;;;;;;58.67;33.00;;;11.30;99.90;;;;;;4923688;28;20097;-81
2023/10/20 06:35:32;;;;;;;62.35;31.83;;;11.30;99.90;;;;;;4938206;28;20035;-81
2023/10/20 06:40:35;;;;;;;58.95;30.90;;;11.20;99.90;;;;;;4939680;28;20410;-82
2023/10/20 06:43:01;;;;;;;51.30;26.45;;;11.20;99.90;;;;;;4955142;28;20031;-82
2023/10/20 06:45:29;;;;;;;63.78;32.50;;;11.20;99.90;;;;;;4927886;28;20050;-80
2023/10/20 06:47:57;;;;;;;69.78;36.33;;;11.20;99.90;;;;;;4938040;28;20054;-80
2023/10/20 06:50:23;;;;;;;68.93;34.25;;;11.20;99.90;;;;;;4953719;28;20053;-82
2023/10/20 06:52:50;;;;;;;66.55;35.22;;;11.10;99.90;;;;;;4940118;28;20561;-81
2023/10/20 06:55:16;;;;;;;60.00;30.73;;;11.10;99.90;;;;;;5016884;28;20037;-81
2023/10/20 06:57:42;;;;;;;58.83;29.38;;;11.10;99.90;;;;;;5011421;28;21312;-80
2023/10/20 07:00:17;;;;;;;60.10;30.65;;;11.10;99.90;;;;;;5016999;28;20471;-80
2023/10/20 07:02:43;;;;;;;44.78;25.20;;;11.10;99.90;;;;;;5012459;28;20044;-80
2023/10/20 07:05:10;;;;;;;53.55;30.10;;;11.00;99.90;;;;;;5016728;28;20025;-80
2023/10/20 07:07:36;;;;;;;49.58;26.75;;;11.00;99.90;;;;;;4999115;28;20037;-79
2023/10/20 07:10:03;;;;;;;55.78;27.58;;;11.00;99.90;;;;;;5015920;28;20029;-79
2023/10/20 07:12:30;;;;;;;41.95;25.27;;;10.90;99.90;;;;;;5015662;28;20348;-79
2023/10/20 07:14:56;;;;;;;42.92;23.27;;;10.90;99.90;;;;;;5015925;28;20029;-80
2023/10/20 07:17:22;;;;;;;47.70;25.83;;;10.90;99.90;;;;;;5017336;28;20492;-80
2023/10/20 07:19:49;;;;;;;42.85;23.05;;;10.90;99.90;;;;;;5015412;28;20033;-81
2023/10/20 07:22:15;;;;;;;41.45;22.15;;;10.90;99.90;;;;;;5018668;28;20041;-80
2023/10/20 07:24:42;;;;;;;40.75;21.15;;;10.90;99.90;;;;;;5019545;28;20044;-79
2023/10/20 07:27:10;;;;;;;38.70;23.30;;;10.90;99.90;;;;;;4986468;28;20465;-80
2023/10/20 07:29:36;;;;;;;36.78;20.10;;;10.80;99.90;;;;;;4986608;28;20057;-78
2023/10/20 07:32:03;;;;;;;31.67;19.55;;;10.80;99.90;;;;;;5019264;28;20378;-80
2023/10/20 07:34:31;;;;;;;29.85;17.50;;;10.90;99.90;;;;;;5019741;28;20040;-81
2023/10/20 07:36:58;;;;;;;33.40;19.45;;;10.80;99.90;;;;;;4991042;28;20399;-78
2023/10/20 07:39:24;;;;;;;35.67;22.58;;;10.80;99.90;;;;;;5002645;28;20040;-78
2023/10/20 07:41:52;;;;;;;31.83;18.17;;;10.80;99.90;;;;;;5002285;28;20033;-77
2023/10/20 07:44:18;;;;;;;29.52;18.05;;;10.80;99.90;;;;;;5017438;28;20030;-77
2023/10/20 07:46:45;;;;;;;30.88;18.52;;;10.80;99.90;;;;;;5001018;28;20029;-77
2023/10/20 07:49:11;;;;;;;30.98;18.50;;;10.80;99.90;;;;;;5003178;28;20049;-78
2023/10/20 07:51:39;;;;;;;25.23;15.45;;;10.70;99.90;;;;;;5001403;28;20033;-77
2023/10/20 07:54:07;;;;;;;29.67;17.40;;;10.70;99.90;;;;;;5002603;28;20048;-77
2023/10/20 07:56:33;;;;;;;24.92;15.50;;;10.70;99.90;;;;;;5017506;28;20033;-79
2023/10/20 07:58:59;;;;;;;26.92;16.70;;;10.70;99.90;;;;;;4985944;28;20373;-76
2023/10/20 08:01:26;;;;;;;22.35;15.73;;;10.60;99.90;;;;;;5001996;28;20026;-77
2023/10/20 08:03:53;;;;;;;24.92;15.95;;;10.60;99.90;;;;;;5018651;28;20052;-77
2023/10/20 08:06:19;;;;;;;25.77;15.00;;;10.60;99.90;;;;;;5018218;28;20033;-77
2023/10/20 08:08:46;;;;;;;19.20;13.20;;;10.60;99.90;;;;;;5002616;28;20037;-76
2023/10/20 08:11:12;;;;;;;22.83;14.20;;;10.60;99.90;;;;;;5001953;28;20029;-76
2023/10/20 08:13:38;;;;;;;23.48;14.27;;;10.60;99.90;;;;;;5000987;28;20037;-76
2023/10/20 08:16:09;;;;;;;18.02;13.13;;;10.60;99.90;;;;;;5017959;28;20041;-77
2023/10/20 08:18:36;;;;;;;18.77;12.60;;;10.60;99.90;;;;;;5012908;28;20042;-77
2023/10/20 08:21:04;;;;;;;16.80;11.32;;;10.50;99.90;;;;;;5020050;28;20052;-76
2023/10/20 08:23:30;;;;;;;17.55;11.65;;;10.50;99.90;;;;;;4999342;28;20037;-77
2023/10/20 08:25:57;;;;;;;15.90;11.27;;;10.50;99.90;;;;;;5001257;28;20042;-76
2023/10/20 08:28:25;;;;;;;14.95;10.10;;;10.50;99.90;;;;;;5003310;28;20053;-76
2023/10/20 08:30:51;;;;;;;17.48;12.25;;;10.50;99.90;;;;;;5018087;28;20033;-84
2023/10/20 08:33:17;;;;;;;13.38;10.07;;;10.50;99.90;;;;;;5002804;28;20029;-82
2023/10/20 08:35:44;;;;;;;13.05;9.45;;;10.50;99.90;;;;;;5031289;28;20040;-79
2023/10/20 08:38:10;;;;;;;13.10;9.48;;;10.50;99.90;;;;;;5017893;28;20044;-77
2023/10/20 08:40:37;;;;;;;13.43;9.27;;;10.50;99.90;;;;;;5020302;28;20052;-80
2023/10/20 08:43:04;;;;;;;11.50;8.93;;;10.40;99.90;;;;;;5020466;28;20504;-78
2023/10/20 08:45:34;;;;;;;9.30;6.65;;;10.40;99.90;;;;;;5001362;28;20037;-80
2023/10/20 08:48:03;;;;;;;9.02;6.60;;;10.40;99.90;;;;;;5002299;28;20048;-80
2023/10/20 08:50:33;;;;;;;8.52;6.75;;;10.30;99.90;;;;;;5016694;28;20543;-83
2023/10/20 08:53:04;;;;;;;7.03;6.32;;;10.30;99.90;;;;;;4986405;28;20484;-80
2023/10/20 08:55:31;;;;;;;7.95;6.82;;;10.20;99.90;;;;;;5016328;28;20042;-80
2023/10/20 08:57:57;;;;;;;8.07;6.53;;;10.30;99.90;;;;;;4985609;28;20393;-80
2023/10/20 09:00:24;;;;;;;8.20;7.35;;;10.20;99.90;;;;;;5002718;28;20037;-79
2023/10/20 09:02:57;;;;;;;8.45;7.20;;;10.20;99.90;;;;;;5018118;28;20033;-80
2023/10/20 09:05:23;;;;;;;7.95;6.10;;;10.30;99.90;;;;;;5016497;28;20044;-81
2023/10/20 09:07:54;;;;;;;10.15;6.32;;;10.20;99.90;;;;;;4985350;28;20049;-81
2023/10/20 09:10:20;;;;;;;6.72;5.22;;;10.20;99.90;;;;;;5018189;28;20044;-81
2023/10/20 09:12:47;;;;;;;7.68;6.07;;;10.20;99.90;;;;;;5019128;28;20421;-84
2023/10/20 09:15:13;;;;;;;6.38;5.22;;;10.10;99.90;;;;;;5001289;28;20045;-82
2023/10/20 09:17:40;;;;;;;7.28;5.82;;;10.10;99.90;;;;;;5018034;28;20037;-80
2023/10/20 09:20:11;;;;;;;7.03;5.53;;;10.10;99.90;;;;;;5000826;28;20092;-80
2023/10/20 09:22:38;;;;;;;5.70;5.13;;;10.10;99.90;;;;;;5000607;28;20041;-79
2023/10/20 09:25:07;;;;;;;5.40;4.32;;;10.20;99.90;;;;;;4997351;28;20033;-80
2023/10/20 09:27:34;;;;;;;4.72;4.20;;;10.10;99.90;;;;;;5001422;28;20052;-80
2023/10/20 09:30:00;;;;;;;6.38;4.32;;;10.10;99.90;;;;;;5002402;28;20045;-81
2023/10/20 09:32:27;;;;;;;7.43;4.85;;;10.10;99.90;;;;;;5001737;28;20038;-82
2023/10/20 09:34:53;;;;;;;4.38;3.97;;;10.10;99.90;;;;;;5005653;28;20429;-82
2023/10/20 09:37:23;;;;;;;6.38;4.25;;;10.00;99.90;;;;;;5000254;28;20036;-82
2023/10/20 09:39:54;;;;;;;6.65;3.72;;;10.00;99.90;;;;;;4996372;28;20056;-82
2023/10/20 09:42:24;;;;;;;4.93;3.88;;;10.00;99.90;;;;;;5018821;28;20029;-80
2023/10/20 09:45:14;;;;;;;4.55;3.53;;;10.00;99.90;;;;;;4985670;28;20040;-81
2023/10/20 09:47:43;;;;;;;5.68;4.72;;;10.00;99.90;;;;;;5014927;28;20431;-83
2023/10/20 09:50:14;;;;;;;3.30;2.78;;;10.00;99.90;;;;;;5001871;28;20068;-83
2023/10/20 09:52:42;;;;;;;4.38;2.85;;;10.00;99.90;;;;;;5005375;28;20045;-84
2023/10/20 09:55:11;;;;;;;3.13;2.80;;;10.00;99.90;;;;;;5002158;28;20038;-85
2023/10/20 09:57:37;;;;;;;3.67;3.20;;;10.00;99.90;;;;;;5016727;28;20041;-87
2023/10/20 10:00:08;;;;;;;3.65;2.20;;;10.00;99.90;;;;;;5002575;28;20045;-82
2023/10/20 10:02:34;;;;;;;3.17;1.80;;;10.00;99.90;;;;;;5018784;28;20044;-82
2023/10/20 10:05:01;;;;;;;2.10;1.90;;;10.00;99.90;;;;;;4987121;28;20036;-84
2023/10/20 10:07:34;;;;;;;2.20;1.60;;;10.10;99.90;;;;;;5003333;28;20044;-88
2023/10/20 10:10:02;;;;;;;2.85;2.10;;;10.10;99.90;;;;;;5003519;28;20049;-84
2023/10/20 10:12:29;;;;;;;2.95;1.65;;;10.10;99.90;;;;;;5001801;28;20809;-83
2023/10/20 10:15:01;;;;;;;2.05;1.75;;;10.10;99.90;;;;;;5002362;28;20049;-86
2023/10/20 10:17:27;;;;;;;2.17;1.98;;;10.10;99.90;;;;;;4997548;28;20059;-83
2023/10/20 10:19:55;;;;;;;2.42;1.70;;;10.10;99.90;;;;;;4986527;28;20037;-83
2023/10/20 10:22:29;;;;;;;2.47;1.70;;;10.10;99.90;;;;;;5017080;28;20029;-81
2023/10/20 10:24:59;;;;;;;3.38;2.55;;;10.10;99.90;;;;;;5015576;28;20048;-84
2023/10/20 10:27:28;;;;;;;3.95;3.03;;;10.10;99.90;;;;;;5016653;28;20029;-82
2023/10/20 10:30:00;;;;;;;3.92;2.75;;;10.10;99.90;;;;;;5003987;28;20477;-81
2023/10/20 10:32:31;;;;;;;2.75;2.55;;;10.10;99.90;;;;;;5000810;28;20327;-85
2023/10/20 10:34:58;;;;;;;3.97;2.63;;;10.20;99.90;;;;;;5001802;28;20021;-82
2023/10/20 10:37:29;;;;;;;2.35;2.15;;;10.10;99.90;;;;;;4985012;28;20036;-85
2023/10/20 10:40:07;;;;;;;2.40;1.88;;;10.20;99.90;;;;;;4984079;28;20049;-86
2023/10/20 10:42:47;;;;;;;2.25;1.98;;;10.20;99.90;;;;;;5033596;28;20034;-85
2023/10/20 10:45:40;;;;;;;3.35;2.40;;;10.20;99.90;;;;;;4984483;28;20036;-85
2023/10/20 10:48:12;;;;;;;1.98;1.75;;;10.20;99.90;;;;;;5017005;28;20037;-84
2023/10/20 10:50:43;;;;;;;2.08;1.50;;;10.20;99.90;;;;;;5017537;28;20032;-83
2023/10/20 10:53:11;;;;;;;2.50;2.30;;;10.30;99.90;;;;;;4983885;28;20029;-82
2023/10/20 10:55:38;;;;;;;2.42;1.90;;;10.30;99.90;;;;;;5002217;28;20030;-85
2023/10/20 10:58:15;;;;;;;2.70;1.70;;;10.30;99.90;;;;;;5003337;28;20061;-86
2023/10/20 11:00:44;;;;;;;2.10;1.70;;;10.30;99.90;;;;;;5017700;28;20440;-83
2023/10/20 11:03:11;;;;;;;2.25;1.85;;;10.30;99.90;;;;;;5001666;28;20033;-85
2023/10/20 11:05:39;;;;;;;10.82;2.75;;;10.30;99.90;;;;;;5001672;28;20052;-85
2023/10/20 11:08:07;;;;;;;1.70;1.33;;;10.30;99.90;;;;;;5031286;28;20030;-83
2023/10/20 11:10:36;;;;;;;2.90;2.50;;;10.20;99.90;;;;;;5003531;28;20475;-83
2023/10/20 11:13:07;;;;;;;2.95;2.15;;;10.20;99.90;;;;;;5015882;28;20385;-84
2023/10/20 11:15:35;;;;;;;4.93;2.83;;;10.20;99.90;;;;;;4980400;28;20025;-81
2023/10/20 11:18:04;;;;;;;3.42;2.58;;;10.20;99.90;;;;;;5015393;28;20033;-83
2023/10/20 11:20:38;;;;;;;3.05;2.40;;;10.20;99.90;;;;;;5017922;28;21140;-80
2023/10/20 11:23:07;;;;;;;3.22;2.72;;;10.20;99.90;;;;;;4999624;28;22831;-82
2023/10/20 11:25:37;;;;;;;3.67;2.95;;;10.30;99.90;;;;;;5001089;28;20033;-86
2023/10/20 11:28:04;;;;;;;4.10;3.50;;;10.30;99.90;;;;;;5016823;28;20037;-88
2023/10/20 11:30:32;;;;;;;2.53;2.03;;;10.30;99.90;;;;;;4985090;28;20041;-84
2023/10/20 11:32:58;;;;;;;2.30;1.85;;;10.30;99.90;;;;;;5016771;28;20041;-82
2023/10/20 11:35:25;;;;;;;2.47;1.60;;;10.30;99.90;;;;;;4985123;28;20376;-84
2023/10/20 11:37:52;;;;;;;1.95;1.55;;;10.20;99.90;;;;;;5015550;28;20044;-81
2023/10/20 11:40:20;;;;;;;2.03;1.75;;;10.20;99.90;;;;;;5018506;28;20650;-85
2023/10/20 11:42:46;;;;;;;4.03;3.25;;;10.20;99.90;;;;;;5002971;28;20044;-81
2023/10/20 11:45:13;;;;;;;8.48;5.97;;;10.20;99.90;;;;;;5015935;28;20033;-83
2023/10/20 11:47:40;;;;;;;3.63;1.83;;;10.20;99.90;;;;;;5017705;28;20040;-85
2023/10/20 11:50:11;;;;;;;2.17;1.70;;;10.30;99.90;;;;;;5018291;28;20352;-81
2023/10/20 11:52:38;;;;;;;1.30;0.95;;;10.30;99.90;;;;;;4999523;28;20496;-83
2023/10/20 11:55:06;;;;;;;1.45;1.15;;;10.30;99.90;;;;;;5013830;28;20504;-81
2023/10/20 11:57:32;;;;;;;1.77;1.23;;;10.30;99.90;;;;;;5000042;28;20048;-82
2023/10/20 12:00:01;;;;;;;1.73;1.00;;;10.30;99.90;;;;;;5018065;28;20041;-84
2023/10/20 12:02:38;;;;;;;1.50;1.05;;;10.30;99.90;;;;;;5002662;28;20402;-83
2023/10/20 12:05:05;;;;;;;1.50;1.10;;;10.30;99.90;;;;;;5013426;28;20041;-85
2023/10/20 12:07:32;;;;;;;1.52;1.13;;;10.30;99.90;;;;;;4986173;28;20049;-85
2023/10/20 12:09:59;;;;;;;1.83;1.20;;;10.30;99.90;;;;;;5020965;28;20397;-82
2023/10/20 12:12:25;;;;;;;1.30;0.90;;;10.30;99.90;;;;;;5004207;28;20382;-83
2023/10/20 12:14:52;;;;;;;1.38;1.05;;;10.30;99.90;;;;;;4987845;28;20025;-82
2023/10/20 12:17:19;;;;;;;2.88;2.00;;;10.30;99.90;;;;;;5021468;28;20041;-83
2023/10/20 12:19:45;;;;;;;1.83;1.23;;;10.30;99.90;;;;;;5022828;28;20049;-84
2023/10/20 12:22:12;;;;;;;1.55;1.20;;;10.30;99.90;;;;;;4987928;28;20052;-84
2023/10/20 12:24:38;;;;;;;2.05;1.38;;;10.30;99.90;;;;;;5002127;28;20033;-81
2023/10/20 12:27:05;;;;;;;1.60;1.10;;;10.30;99.90;;;;;;5002357;28;20060;-83
2023/10/20 12:29:31;;;;;;;2.90;2.70;;;10.30;99.90;;;;;;4988111;28;20127;-82
2023/10/20 12:32:23;;;;;;;2.72;2.53;;;10.30;99.90;;;;;;5013326;28;20041;-81
2023/10/20 12:34:49;;;;;;;1.90;1.70;;;10.20;99.90;;;;;;5004209;28;20034;-83
2023/10/20 12:37:17;;;;;;;2.45;2.25;;;10.20;99.90;;;;;;5021215;28;20048;-85
2023/10/20 12:39:43;;;;;;;2.30;1.75;;;10.20;99.90;;;;;;5003963;28;20029;-86
2023/10/20 12:42:10;;;;;;;1.63;1.52;;;10.10;99.90;;;;;;5004052;28;20041;-83
2023/10/20 12:44:36;;;;;;;2.45;1.77;;;10.10;99.90;;;;;;5001090;28;20037;-84
2023/10/20 12:47:03;;;;;;;2.05;1.85;;;10.20;99.90;;;;;;4989900;28;20045;-83
2023/10/20 12:49:31;;;;;;;1.65;1.48;;;10.20;99.90;;;;;;5005913;28;20044;-81
2023/10/20 12:51:57;;;;;;;2.72;1.63;;;10.20;99.90;;;;;;4990690;28;20033;-85
2023/10/20 12:54:23;;;;;;;1.40;1.08;;;10.20;99.90;;;;;;5004718;28;20041;-82
2023/10/20 12:56:50;;;;;;;1.85;1.25;;;10.20;99.90;;;;;;5024559;28;20034;-81
2023/10/20 12:59:16;;;;;;;1.30;1.13;;;10.20;99.90;;;;;;5005414;28;20033;-84
2023/10/20 13:01:43;;;;;;;1.60;1.38;;;10.20;99.90;;;;;;5019548;28;20034;-85
2023/10/20 13:04:10;;;;;;;1.63;1.48;;;10.20;99.90;;;;;;5004663;28;20033;-86
2023/10/20 13:06:36;;;;;;;1.42;1.00;;;10.20;99.90;;;;;;5015388;28;20037;-85
2023/10/20 13:09:03;;;;;;;2.90;1.98;;;10.20;99.90;;;;;;5004702;28;20066;-81
2023/10/20 13:11:29;;;;;;;5.32;4.28;;;10.20;99.90;;;;;;5003487;28;20388;-76
2023/10/20 13:13:55;;;;;;;1.55;1.15;;;10.30;99.90;;;;;;5021898;28;20041;-78
2023/10/20 13:16:22;;;;;;;1.20;1.08;;;10.30;99.90;;;;;;5021038;28;20033;-79
2023/10/20 13:18:48;;;;;;;1.35;0.80;;;10.30;99.90;;;;;;5020771;28;20034;-80